createdAt,value
2018-03-14T00:02:15.251Z,88.40
2018-03-14T00:04:46.061Z,88.24
2018-03-14T00:07:16.915Z,87.46
2018-03-14T00:09:47.748Z,87.66
2018-03-14T00:12:18.580Z,87.55
2018-03-14T00:14:49.402Z,87.36
2018-03-14T00:17:20.227Z,87.44
2018-03-14T00:19:51.064Z,86.94
2018-03-14T00:22:31.970Z,86.85
2018-03-14T00:25:02.871Z,86.98
2018-03-14T00:27:33.739Z,86.61
2018-03-14T00:30:04.595Z,85.83
2018-03-14T00:32:35.431Z,86.78
2018-03-14T00:35:06.245Z,87.01
2018-03-14T00:37:37.087Z,87.34
2018-03-14T00:40:07.916Z,86.90
2018-03-14T00:42:38.741Z,86.50
2018-03-14T00:45:09.579Z,87.05
2018-03-14T00:47:40.494Z,87.19
2018-03-14T00:50:11.401Z,87.29
2018-03-14T00:52:42.198Z,86.00
2018-03-14T00:55:13.037Z,85.55
2018-03-14T00:57:43.926Z,86.50
2018-03-14T01:00:14.771Z,86.09
2018-03-14T01:02:45.635Z,85.32
2018-03-14T01:05:16.451Z,85.37
2018-03-14T01:07:47.330Z,85.08
2018-03-14T01:10:18.150Z,85.01
2018-03-14T01:12:49.000Z,84.51
2018-03-14T01:15:19.860Z,84.55
2018-03-14T01:17:50.717Z,84.81
2018-03-14T01:20:21.526Z,84.41
2018-03-14T01:22:52.410Z,84.56
2018-03-14T01:25:23.247Z,84.37
2018-03-14T01:27:54.070Z,84.64
2018-03-14T01:30:24.936Z,84.13
2018-03-14T01:32:55.774Z,85.05
2018-03-14T01:35:26.630Z,84.21
2018-03-14T01:37:57.465Z,84.56
2018-03-14T01:40:28.302Z,84.41
2018-03-14T01:42:59.138Z,84.38
2018-03-14T01:45:29.957Z,84.78
2018-03-14T01:48:00.814Z,85.10
2018-03-14T01:50:31.698Z,83.89
2018-03-14T01:53:16.902Z,84.31
2018-03-14T01:55:47.745Z,84.60
2018-03-14T01:58:18.575Z,84.82
2018-03-14T02:00:49.465Z,83.77
2018-03-14T02:03:20.310Z,83.47
2018-03-14T02:05:51.151Z,83.84
2018-03-14T02:08:21.990Z,83.61
2018-03-14T02:10:52.784Z,83.15
2018-03-14T02:13:27.041Z,83.91
2018-03-14T02:15:57.890Z,84.04
2018-03-14T02:18:28.738Z,83.51
2018-03-14T02:20:59.574Z,83.51
2018-03-14T02:23:30.462Z,83.72
2018-03-14T02:26:01.351Z,83.21
2018-03-14T02:28:32.231Z,83.55
2018-03-14T02:31:03.066Z,82.90
2018-03-14T02:33:33.929Z,82.75
2018-03-14T02:36:04.771Z,82.59
2018-03-14T02:38:35.605Z,82.67
2018-03-14T02:41:06.446Z,82.77
2018-03-14T02:43:37.337Z,82.57
2018-03-14T02:46:08.215Z,83.28
2018-03-14T02:48:39.059Z,83.07
2018-03-14T02:51:09.903Z,82.97
2018-03-14T02:53:40.736Z,83.31
2018-03-14T02:56:11.534Z,82.80
2018-03-14T02:58:42.340Z,83.45
2018-03-14T03:01:13.261Z,83.84
2018-03-14T03:03:44.083Z,83.83
2018-03-14T03:06:14.921Z,83.81
2018-03-14T03:08:45.758Z,83.88
2018-03-14T03:11:16.619Z,84.36
2018-03-14T03:13:47.477Z,84.21
2018-03-14T03:16:18.328Z,84.29
2018-03-14T03:18:49.170Z,84.36
2018-03-14T03:21:20.028Z,84.06
2018-03-14T03:23:50.879Z,83.92
2018-03-14T03:26:21.708Z,83.71
2018-03-14T03:28:52.502Z,83.54
2018-03-14T03:31:23.313Z,83.49
2018-03-14T03:33:54.168Z,83.38
2018-03-14T03:36:25.046Z,83.49
2018-03-14T03:38:55.924Z,83.18
2018-03-14T03:41:26.762Z,83.65
2018-03-14T03:43:57.584Z,83.17
2018-03-14T03:46:28.423Z,83.44
2018-03-14T03:48:59.314Z,83.93
2018-03-14T03:51:30.154Z,83.67
2018-03-14T03:54:01.006Z,83.34
2018-03-14T03:56:31.838Z,83.39
2018-03-14T03:59:02.779Z,83.17
2018-03-14T04:01:33.642Z,83.24
2018-03-14T04:04:04.479Z,82.90
2018-03-14T04:06:35.291Z,82.81
2018-03-14T04:09:06.125Z,82.92
2018-03-14T04:11:36.947Z,83.19
2018-03-14T04:14:07.800Z,83.03
2018-03-14T04:16:38.630Z,83.16
2018-03-14T04:19:09.504Z,82.85
2018-03-14T04:21:40.340Z,83.09
2018-03-14T04:24:11.168Z,83.30
2018-03-14T04:26:41.987Z,83.42
2018-03-14T04:29:12.835Z,83.08
2018-03-14T04:31:43.662Z,82.67
2018-03-14T04:34:14.513Z,83.54
2018-03-14T04:36:45.349Z,83.66
2018-03-14T04:39:16.185Z,82.30
2018-03-14T04:41:47.022Z,83.19
2018-03-14T04:44:17.879Z,83.56
2018-03-14T04:46:48.719Z,83.13
2018-03-14T04:49:19.530Z,83.05
2018-03-14T04:51:50.362Z,83.04
2018-03-14T04:54:21.211Z,82.61
2018-03-14T04:56:52.050Z,82.82
2018-03-14T04:59:22.891Z,82.99
2018-03-14T05:01:53.725Z,83.40
2018-03-14T05:04:24.629Z,83.47
2018-03-14T05:06:55.459Z,83.37
2018-03-14T05:09:26.323Z,83.49
2018-03-14T05:11:57.152Z,84.22
2018-03-14T05:14:28.113Z,84.49
2018-03-14T05:16:58.932Z,83.99
2018-03-14T05:19:29.769Z,84.39
2018-03-14T05:22:00.563Z,84.85
2018-03-14T05:24:31.436Z,84.34
2018-03-14T05:27:02.222Z,84.65
2018-03-14T05:29:33.016Z,84.24
2018-03-14T05:32:03.857Z,84.76
2018-03-14T05:34:34.779Z,84.96
2018-03-14T05:37:05.537Z,84.99
2018-03-14T05:39:37.417Z,84.77
2018-03-14T05:42:08.232Z,84.30
2018-03-14T05:44:39.155Z,84.38
2018-03-14T05:47:09.997Z,83.75
2018-03-14T05:49:40.817Z,83.99
2018-03-14T05:52:11.707Z,83.36
2018-03-14T05:54:42.509Z,83.38
2018-03-14T05:57:13.338Z,83.31
2018-03-14T05:59:44.170Z,83.16
2018-03-14T06:02:14.987Z,83.25
2018-03-14T06:04:45.812Z,83.28
2018-03-14T06:07:16.624Z,83.43
2018-03-14T06:09:47.421Z,82.94
2018-03-14T06:12:18.233Z,83.79
2018-03-14T06:14:49.026Z,83.89
2018-03-14T06:17:19.861Z,83.43
2018-03-14T06:19:50.688Z,84.30
2018-03-14T06:22:21.538Z,84.86
2018-03-14T06:24:52.355Z,84.85
2018-03-14T06:27:23.193Z,84.41
2018-03-14T06:29:54.138Z,85.01
2018-03-14T06:32:24.989Z,85.20
2018-03-14T06:34:55.863Z,85.01
2018-03-14T06:37:26.726Z,84.51
2018-03-14T06:39:57.649Z,84.47
2018-03-14T06:42:28.513Z,83.74
2018-03-14T06:44:59.432Z,84.13
2018-03-14T06:47:30.262Z,83.89
2018-03-14T06:50:01.100Z,83.50
2018-03-14T06:52:31.960Z,81.80
2018-03-14T06:55:02.778Z,81.90
2018-03-14T06:57:33.632Z,81.10
2018-03-14T07:00:16.870Z,80.53
2018-03-14T07:02:47.745Z,79.45
2018-03-14T07:05:31.066Z,79.87
2018-03-14T07:08:01.893Z,79.44
2018-03-14T07:10:32.776Z,80.28
2018-03-14T07:13:03.738Z,79.36
2018-03-14T07:15:34.592Z,78.57
2018-03-14T07:18:05.400Z,77.84
2018-03-14T07:20:36.224Z,77.62
2018-03-14T07:23:07.059Z,77.25
2018-03-14T07:25:37.921Z,77.37
2018-03-14T07:28:08.736Z,76.64
2018-03-14T07:30:39.575Z,76.44
2018-03-14T07:33:10.446Z,76.97
2018-03-14T07:35:41.246Z,76.29
2018-03-14T07:38:12.078Z,75.91
2018-03-14T07:40:42.923Z,75.83
2018-03-14T07:43:13.752Z,76.14
2018-03-14T07:45:44.596Z,76.38
2018-03-14T07:48:15.434Z,76.42
2018-03-14T07:50:46.299Z,75.30
2018-03-14T07:53:17.122Z,73.88
2018-03-14T07:55:47.986Z,74.26
2018-03-14T07:58:18.798Z,76.25
2018-03-14T08:00:49.712Z,76.02
2018-03-14T08:03:20.577Z,77.64
2018-03-14T08:05:51.413Z,78.47
2018-03-14T08:08:22.244Z,78.68
2018-03-14T08:10:53.125Z,77.39
2018-03-14T08:13:24.004Z,77.75
2018-03-14T08:15:54.831Z,76.72
2018-03-14T08:18:25.695Z,78.38
2018-03-14T08:20:56.606Z,76.64
2018-03-14T08:23:27.444Z,76.20
2018-03-14T08:25:58.406Z,76.39
2018-03-14T08:28:29.209Z,76.62
2018-03-14T08:31:01.118Z,74.77
2018-03-14T08:33:31.912Z,74.89
2018-03-14T08:36:02.742Z,73.52
2018-03-14T08:38:33.586Z,75.56
2018-03-14T08:41:04.415Z,71.93
2018-03-14T08:43:35.255Z,71.32
2018-03-14T08:46:06.090Z,71.46
2018-03-14T08:48:36.918Z,70.18
2018-03-14T08:51:07.733Z,71.90
2018-03-14T08:53:38.532Z,71.52
2018-03-14T08:56:09.497Z,72.92
2018-03-14T08:58:40.324Z,71.81
2018-03-14T09:01:11.127Z,71.90
2018-03-14T09:03:41.960Z,72.80
2018-03-14T09:06:12.845Z,74.97
2018-03-14T09:08:43.701Z,76.55
2018-03-14T09:11:14.564Z,76.00
2018-03-14T09:13:45.431Z,79.42
2018-03-14T09:16:16.266Z,79.18
2018-03-14T09:18:47.095Z,80.46
2018-03-14T09:21:18.110Z,82.18
2018-03-14T09:23:48.953Z,81.16
2018-03-14T09:26:19.824Z,80.83
2018-03-14T09:28:50.712Z,81.90
2018-03-14T09:31:21.550Z,80.40
2018-03-14T09:33:52.339Z,78.73
2018-03-14T09:36:23.150Z,79.86
2018-03-14T09:38:53.944Z,79.58
2018-03-14T09:41:25.816Z,80.39
2018-03-14T09:43:56.735Z,78.30
2018-03-14T09:46:27.572Z,78.75
2018-03-14T09:48:58.406Z,81.17
2018-03-14T09:51:29.294Z,79.33
2018-03-14T09:54:00.133Z,79.29
2018-03-14T09:56:31.021Z,80.76
2018-03-14T09:59:01.917Z,84.43
2018-03-14T10:01:32.848Z,81.19
2018-03-14T10:04:03.770Z,81.17
2018-03-14T10:06:34.702Z,80.79
2018-03-14T10:09:05.557Z,80.58
2018-03-14T10:11:36.541Z,78.45
2018-03-14T10:14:07.502Z,79.20
2018-03-14T10:16:38.309Z,78.29
2018-03-14T10:19:09.186Z,77.42
2018-03-14T10:21:40.035Z,75.92
2018-03-14T10:24:10.844Z,76.40
2018-03-14T10:26:41.692Z,77.90
2018-03-14T10:29:12.553Z,79.46
2018-03-14T10:31:43.422Z,77.28
2018-03-14T10:34:15.101Z,80.04
2018-03-14T10:36:45.987Z,80.64
2018-03-14T10:39:16.822Z,79.66
2018-03-14T10:41:47.698Z,81.53
2018-03-14T10:44:18.572Z,82.16
2018-03-14T10:46:49.422Z,83.49
2018-03-14T10:49:20.243Z,82.33
2018-03-14T10:51:51.086Z,83.00
2018-03-14T10:54:21.931Z,81.96
2018-03-14T10:56:52.785Z,78.63
2018-03-14T10:59:23.701Z,80.36
2018-03-14T11:01:54.602Z,81.07
2018-03-14T11:04:25.597Z,80.00
2018-03-14T11:06:56.519Z,81.08
2018-03-14T11:09:27.346Z,82.42
2018-03-14T11:11:58.286Z,82.88
2018-03-14T11:14:29.104Z,79.74
2018-03-14T11:17:00.995Z,82.88
2018-03-14T11:19:31.904Z,81.62
2018-03-14T11:22:02.798Z,81.08
2018-03-14T11:24:33.615Z,79.22
2018-03-14T11:27:04.544Z,77.09
2018-03-14T11:29:35.536Z,75.15
2018-03-14T11:32:06.420Z,73.43
2018-03-14T11:34:37.377Z,71.43
2018-03-14T11:37:08.203Z,77.83
2018-03-14T11:39:39.046Z,73.38
2018-03-14T11:42:09.843Z,79.68
2018-03-14T11:44:40.673Z,75.78
2018-03-14T11:47:12.057Z,75.69
2018-03-14T11:49:42.896Z,79.00
2018-03-14T11:52:13.741Z,75.10
2018-03-14T11:54:44.554Z,74.41
2018-03-14T11:57:15.455Z,76.24
2018-03-14T11:59:46.235Z,77.91
2018-03-14T12:02:17.079Z,76.21
2018-03-14T12:04:47.911Z,77.54
2018-03-14T12:07:18.762Z,79.32
2018-03-14T12:09:49.669Z,76.02
2018-03-14T12:12:20.547Z,77.02
2018-03-14T12:14:51.370Z,75.56
2018-03-14T12:17:22.227Z,73.11
2018-03-14T12:19:53.151Z,70.65
2018-03-14T12:22:29.986Z,73.51
2018-03-14T12:25:00.822Z,70.09
2018-03-14T12:27:31.656Z,70.98
2018-03-14T12:30:02.495Z,67.47
2018-03-14T12:32:33.358Z,67.48
2018-03-14T12:35:04.182Z,68.05
2018-03-14T12:37:35.106Z,70.04
2018-03-14T12:40:05.954Z,70.77
2018-03-14T12:42:36.797Z,71.10
2018-03-14T12:45:07.637Z,67.50
2018-03-14T12:47:38.471Z,68.51
2018-03-14T12:50:09.299Z,65.75
2018-03-14T12:52:40.118Z,69.38
2018-03-14T12:55:10.905Z,66.88
2018-03-14T12:57:41.750Z,66.21
2018-03-14T13:00:12.561Z,65.91
2018-03-14T13:02:43.419Z,63.41
2018-03-14T13:05:14.241Z,63.42
2018-03-14T13:07:45.148Z,62.81
2018-03-14T13:10:16.004Z,62.13
2018-03-14T13:12:46.832Z,60.17
2018-03-14T13:15:17.683Z,58.78
2018-03-14T13:17:48.539Z,57.44
2018-03-14T13:20:19.378Z,55.17
2018-03-14T13:22:50.211Z,55.64
2018-03-14T13:25:21.058Z,54.41
2018-03-14T13:27:51.907Z,56.55
2018-03-14T13:30:22.716Z,52.88
2018-03-14T13:32:53.554Z,54.70
2018-03-14T13:35:24.358Z,53.94
2018-03-14T13:37:55.190Z,53.47
2018-03-14T13:40:26.008Z,54.94
2018-03-14T13:42:56.946Z,56.96
2018-03-14T13:45:27.777Z,56.53
2018-03-14T13:47:58.712Z,56.27
2018-03-14T13:50:29.658Z,59.02
2018-03-14T13:53:00.496Z,58.70
2018-03-14T13:55:31.358Z,59.30
2018-03-14T13:58:02.312Z,57.97
2018-03-14T14:00:33.117Z,59.18
2018-03-14T14:03:04.059Z,61.94
2018-03-14T14:05:34.906Z,62.94
2018-03-14T14:08:05.834Z,64.35
2018-03-14T14:10:36.770Z,62.82
2018-03-14T14:13:07.605Z,63.49
2018-03-14T14:15:38.441Z,64.05
2018-03-14T14:18:09.264Z,63.63
2018-03-14T14:20:40.126Z,62.37
2018-03-14T14:23:10.978Z,62.21
2018-03-14T14:25:41.806Z,60.07
2018-03-14T14:28:12.782Z,61.31
2018-03-14T14:30:43.653Z,63.26
2018-03-14T14:33:14.595Z,60.84
2018-03-14T14:35:45.493Z,60.94
2018-03-14T14:38:16.472Z,60.93
2018-03-14T14:40:47.370Z,62.62
2018-03-14T14:43:18.344Z,62.42
2018-03-14T14:45:49.220Z,61.55
2018-03-14T14:50:58.712Z,61.04
2018-03-14T14:53:29.512Z,61.79
2018-03-14T14:56:00.347Z,62.74
2018-03-14T14:58:31.186Z,61.45
2018-03-14T15:01:02.013Z,61.01
2018-03-14T15:03:32.890Z,60.84
2018-03-14T15:06:03.755Z,61.25
2018-03-14T15:08:34.698Z,60.89
2018-03-14T15:11:05.530Z,61.85
2018-03-14T15:13:36.429Z,60.32
2018-03-14T15:16:07.382Z,60.22
2018-03-14T15:18:38.243Z,61.15
2018-03-14T15:21:09.119Z,59.43
2018-03-14T15:23:41.100Z,60.60
2018-03-14T15:26:11.881Z,62.06
2018-03-14T15:28:42.779Z,62.02
2018-03-14T15:31:13.670Z,64.09
2018-03-14T15:33:44.611Z,62.97
2018-03-14T15:36:15.537Z,62.49
2018-03-14T15:38:46.430Z,64.21
2018-03-14T15:41:17.313Z,63.45
2018-03-14T15:43:48.158Z,61.45
2018-03-14T15:46:19.057Z,63.60
2018-03-14T15:48:50.028Z,63.02
2018-03-14T15:51:20.853Z,64.28
2018-03-14T15:53:51.704Z,64.00
2018-03-14T15:56:22.545Z,65.47
2018-03-14T15:58:53.418Z,64.96
2018-03-14T16:01:24.265Z,66.24
2018-03-14T16:03:56.162Z,66.20
2018-03-14T16:06:27.014Z,65.62
2018-03-14T16:08:57.868Z,65.21
2018-03-14T16:11:28.693Z,64.04
2018-03-14T16:13:59.614Z,65.51
2018-03-14T16:16:30.520Z,65.16
2018-03-14T16:19:01.394Z,66.05
2018-03-14T16:21:33.214Z,66.48
2018-03-14T16:24:04.039Z,68.70
2018-03-14T16:26:38.660Z,66.97
2018-03-14T16:29:09.499Z,66.65
2018-03-14T16:31:40.338Z,66.90
2018-03-14T16:34:11.214Z,68.23
2018-03-14T16:36:42.024Z,70.04
2018-03-14T16:39:15.047Z,70.77
2018-03-14T16:41:45.873Z,71.76
2018-03-14T16:44:16.746Z,70.74
2018-03-14T16:46:47.617Z,71.14
2018-03-14T16:49:18.436Z,71.63
2018-03-14T16:51:49.291Z,72.12
2018-03-14T16:54:20.167Z,72.81
2018-03-14T16:56:50.994Z,74.01
2018-03-14T16:59:21.806Z,73.15
2018-03-14T17:01:52.645Z,73.76
2018-03-14T17:04:23.487Z,72.58
2018-03-14T17:06:54.315Z,73.77
2018-03-14T17:09:25.198Z,74.19
2018-03-14T17:11:56.036Z,73.67
2018-03-14T17:14:27.283Z,73.97
2018-03-14T17:16:57.697Z,74.48
2018-03-14T17:19:28.537Z,74.63
2018-03-14T17:21:59.330Z,76.19
2018-03-14T17:24:30.270Z,76.34
2018-03-14T17:27:01.072Z,75.97
2018-03-14T17:29:31.891Z,76.03
2018-03-14T17:32:03.725Z,76.84
2018-03-14T17:34:34.604Z,76.92
2018-03-14T17:37:05.414Z,75.81
2018-03-14T17:39:36.241Z,76.32
2018-03-14T17:42:07.146Z,77.48
2018-03-14T17:44:37.994Z,76.98
2018-03-14T17:47:08.928Z,76.61
2018-03-14T17:49:44.719Z,76.71
2018-03-14T17:52:15.589Z,76.96
2018-03-14T17:54:47.518Z,77.01
2018-03-14T17:57:18.350Z,77.60
2018-03-14T17:59:49.200Z,78.29
2018-03-14T18:02:20.039Z,77.62
2018-03-14T18:04:50.849Z,77.81
2018-03-14T18:07:21.681Z,78.15
2018-03-14T18:09:52.549Z,78.70
2018-03-14T18:12:23.321Z,77.55
2018-03-14T18:14:54.154Z,78.32
2018-03-14T18:17:25.021Z,78.00
2018-03-14T18:19:55.843Z,77.55
2018-03-14T18:22:26.647Z,77.06
2018-03-14T18:24:57.562Z,77.35
2018-03-14T18:27:28.394Z,78.20
2018-03-14T18:29:59.263Z,78.84
2018-03-14T18:32:30.068Z,78.59
2018-03-14T18:35:00.935Z,78.69
2018-03-14T18:37:31.778Z,78.66
2018-03-14T18:40:02.656Z,78.67
2018-03-14T18:42:33.491Z,78.39
2018-03-14T18:45:08.001Z,78.40
2018-03-14T18:47:38.858Z,78.62
2018-03-14T18:50:09.704Z,78.52
2018-03-14T18:52:40.573Z,79.33
2018-03-14T18:55:11.435Z,77.42
2018-03-14T18:57:42.268Z,76.33
2018-03-14T19:00:13.140Z,77.83
2018-03-14T19:02:43.957Z,78.06
2018-03-14T19:05:14.873Z,78.47
2018-03-14T19:07:46.724Z,78.00
2018-03-14T19:10:17.602Z,76.35
2018-03-14T19:12:48.419Z,76.39
2018-03-14T19:15:19.254Z,74.12
2018-03-14T19:17:50.067Z,73.70
2018-03-14T19:20:20.892Z,73.65
2018-03-14T19:22:51.691Z,74.23
2018-03-14T19:25:22.501Z,74.33
2018-03-14T19:27:53.332Z,73.43
2018-03-14T19:30:24.325Z,72.92
2018-03-14T19:32:55.949Z,72.01
2018-03-14T19:35:26.795Z,72.56
2018-03-14T19:37:57.625Z,73.08
2018-03-14T19:40:28.456Z,73.72
2018-03-14T19:42:59.261Z,74.01
2018-03-14T19:45:30.105Z,74.09
2018-03-14T19:48:00.895Z,74.19
2018-03-14T19:50:32.776Z,74.72
2018-03-14T19:53:03.581Z,76.50
2018-03-14T19:55:34.449Z,74.63
2018-03-14T19:58:05.328Z,74.60
2018-03-14T20:00:36.175Z,74.04
2018-03-14T20:03:07.007Z,74.35
2018-03-14T20:05:37.856Z,75.36
2018-03-14T20:08:23.608Z,76.77
2018-03-14T20:10:54.502Z,77.67
2018-03-14T20:13:25.308Z,78.67
2018-03-14T20:15:56.152Z,79.09
2018-03-14T20:18:26.997Z,79.21
2018-03-14T20:20:57.929Z,79.01
2018-03-14T20:23:28.767Z,79.13
2018-03-14T20:25:59.600Z,78.57
2018-03-14T20:28:30.498Z,77.89
2018-03-14T20:31:01.435Z,76.57
2018-03-14T20:33:32.223Z,77.15
2018-03-14T20:36:03.084Z,77.18
2018-03-14T20:38:37.969Z,77.08
2018-03-14T20:41:09.063Z,78.06
2018-03-14T20:43:40.002Z,78.58
2018-03-14T20:46:10.949Z,79.24
2018-03-14T20:48:41.894Z,79.50
2018-03-14T20:51:12.726Z,79.86
2018-03-14T20:53:43.553Z,79.68
2018-03-14T20:56:14.441Z,79.99
2018-03-14T20:58:45.245Z,80.85
2018-03-14T21:01:16.098Z,81.98
2018-03-14T21:03:46.924Z,83.00
2018-03-14T21:06:17.805Z,83.34
2018-03-14T21:08:48.687Z,83.67
2018-03-14T21:11:19.514Z,84.56
2018-03-14T21:13:50.405Z,85.68
2018-03-14T21:16:21.285Z,86.14
2018-03-14T21:18:52.142Z,86.56
2018-03-14T21:21:22.994Z,87.02
2018-03-14T21:23:53.934Z,87.20
2018-03-14T21:26:24.769Z,87.38
2018-03-14T21:28:55.640Z,87.70
2018-03-14T21:31:26.554Z,87.88
2018-03-14T21:33:57.319Z,88.22
2018-03-14T21:36:28.186Z,88.47
2018-03-14T21:38:59.021Z,88.79
2018-03-14T21:41:29.918Z,88.83
2018-03-14T21:44:00.801Z,88.73
2018-03-14T21:46:31.662Z,88.60
2018-03-14T21:49:02.497Z,88.60
2018-03-14T21:51:33.305Z,89.04
2018-03-14T21:54:04.177Z,89.61
2018-03-14T21:56:35.164Z,89.72
2018-03-14T21:59:05.948Z,89.75
2018-03-14T22:01:36.818Z,89.69
2018-03-14T22:04:07.618Z,89.06
2018-03-14T22:06:38.448Z,88.35
2018-03-14T22:09:09.277Z,87.99
2018-03-14T22:11:40.119Z,87.16
2018-03-14T22:14:10.940Z,86.17
2018-03-14T22:16:41.770Z,86.29
2018-03-14T22:19:12.566Z,85.31
2018-03-14T22:21:43.445Z,84.66
2018-03-14T22:24:14.261Z,84.39
2018-03-14T22:26:45.109Z,84.90
2018-03-14T22:29:15.983Z,85.48
2018-03-14T22:31:46.846Z,85.38
2018-03-14T22:34:17.654Z,84.81
2018-03-14T22:36:48.491Z,84.35
2018-03-14T22:39:19.306Z,84.72
2018-03-14T22:41:50.135Z,84.98
2018-03-14T22:44:20.993Z,84.97
2018-03-14T22:46:51.846Z,84.77
2018-03-14T22:49:22.724Z,85.26
2018-03-14T22:51:53.567Z,85.42
2018-03-14T22:54:24.402Z,85.63
2018-03-14T22:56:55.216Z,86.59
2018-03-14T22:59:26.064Z,87.04
2018-03-14T23:01:56.935Z,87.33
2018-03-14T23:04:27.730Z,87.69
2018-03-14T23:06:58.626Z,88.51
2018-03-14T23:09:29.472Z,88.81
2018-03-14T23:12:00.356Z,89.42
2018-03-14T23:14:31.179Z,89.89
2018-03-14T23:17:02.068Z,90.23
2018-03-14T23:19:32.891Z,90.62
2018-03-14T23:22:05.778Z,91.56
2018-03-14T23:24:36.668Z,92.07
2018-03-14T23:27:07.535Z,92.34
2018-03-14T23:29:38.360Z,92.54
2018-03-14T23:32:09.248Z,92.71
2018-03-14T23:34:40.136Z,92.85
2018-03-14T23:37:10.931Z,92.96
2018-03-14T23:39:41.750Z,93.03
2018-03-14T23:42:12.587Z,93.02
2018-03-14T23:44:43.404Z,93.16
2018-03-14T23:47:14.245Z,93.45
2018-03-14T23:49:45.062Z,93.59
2018-03-14T23:52:15.923Z,93.71
2018-03-14T23:54:46.723Z,94.19
2018-03-14T23:57:17.603Z,94.39
2018-03-14T23:59:48.432Z,94.48
